createdAt,value
2018-03-08T00:01:16.342Z,4.30
2018-03-08T00:03:18.983Z,4.30
2018-03-08T00:05:21.635Z,4.30
2018-03-08T00:07:24.258Z,4.30
2018-03-08T00:09:27.727Z,4.20
2018-03-08T00:11:30.338Z,4.20
2018-03-08T00:13:33.734Z,4.20
2018-03-08T00:15:36.357Z,4.20
2018-03-08T00:17:38.988Z,4.20
2018-03-08T00:19:41.631Z,4.30
2018-03-08T00:21:44.281Z,4.30
2018-03-08T00:23:46.897Z,4.30
2018-03-08T00:25:50.281Z,4.30
2018-03-08T00:27:53.673Z,4.20
2018-03-08T00:29:56.303Z,4.20
2018-03-08T00:31:58.943Z,4.10
2018-03-08T00:34:02.454Z,4.20
2018-03-08T00:36:05.120Z,4.20
2018-03-08T00:38:07.813Z,4.10
2018-03-08T00:40:10.432Z,4.10
2018-03-08T00:42:13.077Z,4.10
2018-03-08T00:44:15.698Z,4.20
2018-03-08T00:46:19.125Z,4.30
2018-03-08T00:48:22.108Z,4.30
2018-03-08T00:50:24.706Z,4.30
2018-03-08T00:52:27.493Z,4.20
2018-03-08T00:54:30.124Z,4.20
2018-03-08T00:56:33.518Z,4.10
2018-03-08T00:58:36.893Z,4.20
2018-03-08T01:00:39.512Z,4.20
2018-03-08T01:02:42.146Z,4.20
2018-03-08T01:04:44.787Z,4.20
2018-03-08T01:06:47.451Z,4.10
2018-03-08T01:08:50.059Z,4.10
2018-03-08T01:10:52.662Z,4.10
2018-03-08T01:12:55.406Z,4.00
2018-03-08T01:14:58.019Z,4.00
2018-03-08T01:17:00.724Z,4.10
2018-03-08T01:19:03.352Z,4.20
2018-03-08T01:21:06.759Z,4.20
2018-03-08T01:23:10.136Z,4.10
2018-03-08T01:25:13.548Z,4.10
2018-03-08T01:27:16.943Z,4.20
2018-03-08T01:29:20.345Z,4.10
2018-03-08T01:31:23.086Z,4.10
2018-03-08T01:33:25.726Z,4.20
2018-03-08T01:35:28.347Z,4.10
2018-03-08T01:37:31.733Z,4.20
2018-03-08T01:39:34.351Z,4.20
2018-03-08T01:41:36.967Z,4.10
2018-03-08T01:43:39.705Z,4.10
2018-03-08T01:45:42.341Z,4.10
2018-03-08T01:47:44.954Z,4.20
2018-03-08T01:49:47.587Z,4.20
2018-03-08T01:52:02.022Z,4.30
2018-03-08T01:54:04.651Z,4.30
2018-03-08T01:56:07.297Z,4.20
2018-03-08T01:58:09.898Z,4.30
2018-03-08T02:00:12.534Z,4.30
2018-03-08T02:02:15.250Z,4.40
2018-03-08T02:04:18.748Z,4.30
2018-03-08T02:06:21.393Z,4.40
2018-03-08T02:08:24.802Z,4.40
2018-03-08T02:10:27.442Z,4.30
2018-03-08T02:12:30.059Z,4.30
2018-03-08T02:14:32.677Z,4.30
2018-03-08T02:16:35.331Z,4.30
2018-03-08T02:18:37.956Z,4.20
2018-03-08T02:20:41.407Z,4.10
2018-03-08T02:22:44.048Z,4.10
2018-03-08T02:24:47.427Z,4.20
2018-03-08T02:26:50.892Z,4.20
2018-03-08T02:28:53.506Z,4.20
2018-03-08T02:30:56.926Z,4.20
2018-03-08T02:32:59.559Z,4.20
2018-03-08T02:35:02.190Z,4.10
2018-03-08T02:37:04.832Z,4.10
2018-03-08T02:39:07.480Z,4.10
2018-03-08T02:41:10.209Z,4.00
2018-03-08T02:43:12.828Z,4.00
2018-03-08T02:45:15.466Z,4.00
2018-03-08T02:47:18.685Z,4.00
2018-03-08T02:49:21.364Z,3.90
2018-03-08T02:51:23.994Z,3.80
2018-03-08T02:53:26.629Z,3.90
2018-03-08T02:55:30.028Z,3.90
2018-03-08T02:57:33.432Z,4.00
2018-03-08T02:59:36.847Z,4.00
2018-03-08T03:01:39.475Z,4.00
2018-03-08T03:03:42.122Z,4.10
2018-03-08T03:05:44.778Z,4.10
2018-03-08T03:07:47.458Z,4.20
2018-03-08T03:09:50.107Z,4.30
2018-03-08T03:11:52.731Z,4.30
2018-03-08T03:13:55.353Z,4.30
2018-03-08T03:15:58.737Z,4.20
2018-03-08T03:18:01.375Z,4.20
2018-03-08T03:20:03.994Z,4.20
2018-03-08T03:22:07.385Z,4.20
2018-03-08T03:24:10.777Z,4.20
2018-03-08T03:26:14.185Z,4.20
2018-03-08T03:28:17.909Z,4.20
2018-03-08T03:30:20.533Z,4.20
2018-03-08T03:32:23.200Z,4.10
2018-03-08T03:34:25.889Z,4.10
2018-03-08T03:36:29.343Z,3.90
2018-03-08T03:38:32.081Z,3.90
2018-03-08T03:40:35.473Z,3.80
2018-03-08T03:42:38.863Z,3.80
2018-03-08T03:44:42.273Z,3.80
2018-03-08T03:46:44.873Z,3.80
2018-03-08T03:48:47.490Z,3.70
2018-03-08T03:50:50.273Z,3.60
2018-03-08T03:52:52.879Z,3.70
2018-03-08T03:54:55.481Z,3.70
2018-03-08T03:56:58.113Z,3.70
2018-03-08T03:59:00.761Z,3.70
2018-03-08T04:01:07.419Z,3.70
2018-03-08T04:03:10.043Z,3.70
2018-03-08T04:05:12.708Z,3.80
2018-03-08T04:07:16.156Z,3.70
2018-03-08T04:09:18.749Z,3.60
2018-03-08T04:11:21.406Z,3.70
2018-03-08T04:13:24.022Z,3.70
2018-03-08T04:15:27.392Z,3.60
2018-03-08T04:17:30.870Z,3.60
2018-03-08T04:19:33.515Z,3.50
2018-03-08T04:21:36.183Z,3.60
2018-03-08T04:23:38.802Z,3.50
2018-03-08T04:25:41.404Z,3.40
2018-03-08T04:27:44.850Z,3.40
2018-03-08T04:29:47.506Z,3.40
2018-03-08T04:31:50.258Z,3.50
2018-03-08T04:33:54.704Z,3.60
2018-03-08T04:35:57.305Z,3.50
2018-03-08T04:38:00.014Z,3.50
2018-03-08T04:40:02.688Z,3.60
2018-03-08T04:42:05.325Z,3.60
2018-03-08T04:44:07.990Z,3.60
2018-03-08T04:46:10.608Z,3.60
2018-03-08T04:48:13.298Z,3.50
2018-03-08T04:50:16.712Z,3.50
2018-03-08T04:52:20.086Z,3.50
2018-03-08T04:54:22.786Z,3.40
2018-03-08T04:56:25.386Z,3.50
2018-03-08T04:58:27.987Z,3.50
2018-03-08T05:00:30.685Z,3.50
2018-03-08T05:02:33.338Z,3.40
2018-03-08T05:04:36.194Z,3.40
2018-03-08T05:06:38.823Z,3.40
2018-03-08T05:08:42.206Z,3.30
2018-03-08T05:10:44.841Z,3.30
2018-03-08T05:12:47.468Z,3.30
2018-03-08T05:14:50.855Z,3.30
2018-03-08T05:16:53.479Z,3.30
2018-03-08T05:18:56.082Z,3.20
2018-03-08T05:20:58.705Z,3.20
2018-03-08T05:23:01.314Z,3.20
2018-03-08T05:25:03.956Z,3.10
2018-03-08T05:27:06.587Z,3.10
2018-03-08T05:29:09.190Z,3.00
2018-03-08T05:31:12.587Z,3.00
2018-03-08T05:33:15.978Z,2.90
2018-03-08T05:35:19.389Z,2.90
2018-03-08T05:37:22.020Z,2.80
2018-03-08T05:39:24.662Z,2.80
2018-03-08T05:41:27.286Z,2.80
2018-03-08T05:43:30.722Z,2.70
2018-03-08T05:45:33.345Z,2.60
2018-03-08T05:47:36.010Z,2.60
2018-03-08T05:49:38.653Z,2.60
2018-03-08T05:51:41.262Z,2.60
2018-03-08T05:53:43.879Z,2.60
2018-03-08T05:55:46.534Z,2.60
2018-03-08T05:57:50.600Z,2.50
2018-03-08T05:59:53.206Z,2.50
2018-03-08T06:01:55.885Z,2.40
2018-03-08T06:03:58.541Z,2.40
2018-03-08T06:06:01.192Z,2.40
2018-03-08T06:08:03.811Z,2.40
2018-03-08T06:10:07.227Z,2.30
2018-03-08T06:12:10.630Z,2.30
2018-03-08T06:14:13.299Z,2.30
2018-03-08T06:16:16.701Z,2.30
2018-03-08T06:18:19.372Z,2.20
2018-03-08T06:20:22.005Z,2.20
2018-03-08T06:22:24.690Z,2.20
2018-03-08T06:24:27.342Z,2.20
2018-03-08T06:26:29.965Z,2.20
2018-03-08T06:28:33.381Z,2.20
2018-03-08T06:30:36.005Z,2.20
2018-03-08T06:32:38.622Z,2.20
2018-03-08T06:34:41.285Z,2.30
2018-03-08T06:36:44.664Z,2.30
2018-03-08T06:38:47.270Z,2.20
2018-03-08T06:40:49.898Z,2.30
2018-03-08T06:42:52.522Z,2.40
2018-03-08T06:44:55.174Z,2.40
2018-03-08T06:46:58.855Z,2.40
2018-03-08T06:49:01.478Z,2.40
2018-03-08T06:51:04.112Z,2.50
2018-03-08T06:53:06.738Z,2.50
2018-03-08T06:55:09.398Z,2.50
2018-03-08T06:57:12.001Z,2.40
2018-03-08T06:59:14.618Z,2.40
2018-03-08T07:01:17.220Z,2.50
2018-03-08T07:03:20.001Z,2.60
2018-03-08T07:05:22.651Z,2.70
2018-03-08T07:07:26.019Z,2.80
2018-03-08T07:09:29.090Z,2.80
2018-03-08T07:11:31.741Z,2.90
2018-03-08T07:13:34.399Z,3.00
2018-03-08T07:15:37.033Z,2.90
2018-03-08T07:17:39.642Z,2.90
2018-03-08T07:19:43.024Z,3.10
2018-03-08T07:21:46.508Z,3.10
2018-03-08T07:23:49.134Z,3.10
2018-03-08T07:25:51.781Z,3.20
2018-03-08T07:27:55.264Z,3.40
2018-03-08T07:29:57.941Z,3.30
2018-03-08T07:32:00.570Z,3.40
2018-03-08T07:34:03.191Z,3.50
2018-03-08T07:36:06.582Z,3.50
2018-03-08T07:38:09.361Z,3.50
2018-03-08T07:40:12.749Z,3.50
2018-03-08T07:42:15.443Z,3.50
2018-03-08T07:44:18.847Z,3.60
2018-03-08T07:46:21.532Z,3.60
2018-03-08T07:48:24.154Z,3.60
2018-03-08T07:50:26.791Z,3.70
2018-03-08T07:52:29.414Z,3.80
2018-03-08T07:54:32.201Z,3.70
2018-03-08T07:56:34.814Z,3.70
2018-03-08T07:58:37.485Z,3.60
2018-03-08T08:00:40.191Z,3.70
2018-03-08T08:02:42.994Z,3.70
2018-03-08T08:04:57.494Z,3.80
2018-03-08T08:07:11.886Z,3.90
2018-03-08T08:09:14.528Z,4.00
2018-03-08T08:11:17.169Z,4.00
2018-03-08T08:13:20.542Z,4.00
2018-03-08T08:15:23.192Z,4.00
2018-03-08T08:17:25.815Z,4.10
2018-03-08T08:19:29.292Z,4.20
2018-03-08T08:21:31.938Z,4.10
2018-03-08T08:23:34.548Z,4.10
2018-03-08T08:25:37.204Z,4.10
2018-03-08T08:27:39.840Z,4.10
2018-03-08T08:29:42.490Z,4.20
2018-03-08T08:31:45.874Z,4.30
2018-03-08T08:33:48.497Z,4.30
2018-03-08T08:35:51.884Z,4.30
2018-03-08T08:37:54.520Z,4.20
2018-03-08T08:39:57.905Z,4.20
2018-03-08T08:42:00.536Z,4.20
2018-03-08T08:44:03.166Z,4.30
2018-03-08T08:46:05.805Z,4.20
2018-03-08T08:48:08.459Z,4.30
2018-03-08T08:50:11.084Z,4.30
2018-03-08T08:52:14.516Z,4.40
2018-03-08T08:54:17.123Z,4.40
2018-03-08T08:56:19.729Z,4.50
2018-03-08T08:58:22.351Z,4.50
2018-03-08T09:00:25.011Z,4.60
2018-03-08T09:02:27.627Z,4.70
2018-03-08T09:04:30.269Z,4.70
2018-03-08T09:06:32.908Z,4.80
2018-03-08T09:08:36.303Z,4.90
2018-03-08T09:10:39.726Z,5.00
2018-03-08T09:12:42.524Z,5.00
2018-03-08T09:14:45.229Z,5.10
2018-03-08T09:16:47.973Z,5.10
2018-03-08T09:18:50.598Z,5.20
2018-03-08T09:20:53.242Z,5.20
2018-03-08T09:22:55.842Z,5.20
2018-03-08T09:24:59.245Z,5.30
2018-03-08T09:27:01.866Z,5.20
2018-03-08T09:29:04.494Z,5.30
2018-03-08T09:31:07.103Z,5.30
2018-03-08T09:33:10.515Z,5.40
2018-03-08T09:35:13.135Z,5.40
2018-03-08T09:37:15.763Z,5.40
2018-03-08T09:39:18.378Z,5.50
2018-03-08T09:41:20.970Z,5.50
2018-03-08T09:43:24.373Z,5.70
2018-03-08T09:45:27.757Z,5.70
2018-03-08T09:47:31.153Z,5.70
2018-03-08T09:49:34.583Z,5.70
2018-03-08T09:51:37.214Z,5.70
2018-03-08T09:53:40.606Z,5.80
2018-03-08T09:55:43.270Z,5.70
2018-03-08T09:57:45.867Z,5.80
2018-03-08T09:59:49.253Z,6.00
2018-03-08T10:01:52.639Z,6.00
2018-03-08T10:03:55.278Z,6.00
2018-03-08T10:05:57.923Z,6.10
2018-03-08T10:08:00.800Z,6.20
2018-03-08T10:10:04.031Z,6.30
2018-03-08T10:12:06.692Z,6.30
2018-03-08T10:14:09.313Z,6.30
2018-03-08T10:16:11.913Z,6.40
2018-03-08T10:18:14.528Z,6.50
2018-03-08T10:20:17.155Z,6.60
2018-03-08T10:22:20.584Z,6.60
2018-03-08T10:24:23.237Z,6.60
2018-03-08T10:26:26.450Z,6.60
2018-03-08T10:28:29.067Z,6.70
2018-03-08T10:30:31.729Z,6.70
2018-03-08T10:32:34.357Z,6.80
2018-03-08T10:34:36.999Z,6.80
2018-03-08T10:36:39.626Z,6.80
2018-03-08T10:38:42.282Z,6.90
2018-03-08T10:40:44.998Z,7.00
2018-03-08T10:42:47.639Z,7.00
2018-03-08T10:44:50.278Z,7.00
2018-03-08T10:46:52.906Z,7.00
2018-03-08T10:50:58.977Z,7.40
2018-03-08T10:53:01.595Z,7.40
2018-03-08T10:55:05.037Z,7.50
2018-03-08T10:57:07.639Z,7.50
2018-03-08T10:59:10.270Z,7.40
2018-03-08T11:01:18.658Z,7.40
2018-03-08T11:03:27.474Z,7.40
2018-03-08T11:05:30.106Z,7.50
2018-03-08T11:07:32.723Z,7.50
2018-03-08T11:09:36.149Z,7.70
2018-03-08T11:11:38.819Z,7.60
2018-03-08T11:13:41.442Z,7.70
2018-03-08T11:15:44.100Z,7.80
2018-03-08T11:17:46.687Z,7.90
2018-03-08T11:19:49.352Z,8.00
2018-03-08T11:21:51.971Z,8.20
2018-03-08T11:23:55.329Z,8.30
2018-03-08T11:25:57.991Z,8.20
2018-03-08T11:28:00.716Z,8.30
2018-03-08T11:30:04.166Z,8.30
2018-03-08T11:32:07.560Z,8.20
2018-03-08T11:34:10.163Z,8.10
2018-03-08T11:36:12.784Z,8.00
2018-03-08T11:38:15.421Z,8.00
2018-03-08T11:40:18.052Z,7.90
2018-03-08T11:42:20.719Z,8.00
2018-03-08T11:44:23.364Z,8.00
2018-03-08T11:46:26.751Z,8.10
2018-03-08T11:48:30.178Z,8.20
2018-03-08T11:50:32.797Z,8.20
2018-03-08T11:52:35.415Z,8.20
2018-03-08T11:54:38.083Z,8.20
2018-03-08T11:56:40.676Z,8.20
2018-03-08T11:58:43.324Z,8.20
2018-03-08T12:00:46.694Z,8.30
2018-03-08T12:02:49.353Z,8.30
2018-03-08T12:04:51.993Z,8.40
2018-03-08T12:06:54.590Z,8.40
2018-03-08T12:08:57.255Z,8.40
2018-03-08T12:10:59.905Z,8.50
2018-03-08T12:13:02.503Z,8.50
2018-03-08T12:15:05.283Z,8.50
2018-03-08T12:17:07.944Z,8.40
2018-03-08T12:19:11.314Z,8.40
2018-03-08T12:21:14.734Z,8.50
2018-03-08T12:23:17.405Z,8.50
2018-03-08T12:25:20.937Z,8.70
2018-03-08T12:27:23.669Z,8.90
2018-03-08T12:29:27.037Z,8.80
2018-03-08T12:31:29.689Z,8.70
2018-03-08T12:33:32.290Z,8.70
2018-03-08T12:35:34.947Z,8.70
2018-03-08T12:37:37.549Z,8.80
2018-03-08T12:39:40.151Z,8.90
2018-03-08T12:41:42.776Z,8.90
2018-03-08T12:43:45.397Z,9.00
2018-03-08T12:45:48.048Z,9.00
2018-03-08T12:47:52.010Z,8.90
2018-03-08T12:49:54.671Z,8.90
2018-03-08T12:51:57.343Z,9.00
2018-03-08T12:53:59.989Z,9.10
2018-03-08T12:56:03.394Z,9.30
2018-03-08T12:58:06.034Z,9.20
2018-03-08T13:00:08.869Z,9.30
2018-03-08T13:02:11.583Z,9.30
2018-03-08T13:04:15.000Z,9.30
2018-03-08T13:06:18.111Z,9.30
2018-03-08T13:08:20.717Z,9.30
2018-03-08T13:10:23.390Z,9.30
2018-03-08T13:12:26.010Z,9.40
2018-03-08T13:14:28.642Z,9.60
2018-03-08T13:16:31.403Z,9.60
2018-03-08T13:18:34.045Z,9.60
2018-03-08T13:20:36.630Z,9.60
2018-03-08T13:22:40.015Z,9.60
2018-03-08T13:24:43.414Z,9.60
2018-03-08T13:26:46.120Z,9.60
2018-03-08T13:28:48.754Z,9.50
2018-03-08T13:30:51.380Z,9.40
2018-03-08T13:32:54.005Z,9.50
2018-03-08T13:34:57.400Z,9.50
2018-03-08T13:37:00.039Z,9.40
2018-03-08T13:39:02.730Z,9.50
2018-03-08T13:41:05.371Z,9.40
2018-03-08T13:43:07.997Z,9.40
2018-03-08T13:45:10.625Z,9.40
2018-03-08T13:47:13.223Z,9.40
2018-03-08T13:49:27.669Z,9.30
2018-03-08T13:51:30.302Z,9.30
2018-03-08T13:53:32.976Z,9.30
2018-03-08T13:55:35.594Z,9.30
2018-03-08T13:57:38.196Z,9.30
2018-03-08T13:59:40.829Z,9.30
2018-03-08T14:01:43.470Z,9.30
2018-03-08T14:03:46.863Z,9.40
2018-03-08T14:05:50.224Z,9.40
2018-03-08T14:07:52.826Z,9.40
2018-03-08T14:09:56.215Z,9.30
2018-03-08T14:11:59.580Z,9.30
2018-03-08T14:14:02.234Z,9.30
2018-03-08T14:16:04.860Z,9.30
2018-03-08T14:18:08.288Z,9.40
2018-03-08T14:20:11.003Z,9.30
2018-03-08T14:22:13.633Z,9.40
2018-03-08T14:24:16.276Z,9.40
2018-03-08T14:26:19.689Z,9.30
2018-03-08T14:28:23.083Z,9.20
2018-03-08T14:30:26.458Z,9.20
2018-03-08T14:32:29.840Z,9.20
2018-03-08T14:34:32.467Z,9.20
2018-03-08T14:36:35.092Z,9.20
2018-03-08T14:38:37.696Z,9.20
2018-03-08T14:40:40.354Z,9.20
2018-03-08T14:42:43.778Z,9.10
2018-03-08T14:44:46.434Z,9.00
2018-03-08T14:46:49.835Z,9.00
2018-03-08T14:48:52.591Z,9.00
2018-03-08T14:50:55.194Z,9.00
2018-03-08T14:52:57.826Z,8.90
2018-03-08T14:55:00.454Z,8.80
2018-03-08T14:57:03.157Z,8.90
2018-03-08T14:59:05.801Z,8.90
2018-03-08T15:01:08.424Z,8.90
2018-03-08T15:03:11.028Z,8.90
2018-03-08T15:05:15.540Z,8.90
2018-03-08T15:07:18.946Z,8.90
2018-03-08T15:09:22.344Z,8.80
2018-03-08T15:11:25.058Z,8.80
2018-03-08T15:13:27.672Z,8.80
2018-03-08T15:15:30.280Z,8.80
2018-03-08T15:17:32.931Z,8.80
2018-03-08T15:19:36.303Z,8.80
2018-03-08T15:21:38.953Z,8.80
2018-03-08T15:23:41.615Z,8.90
2018-03-08T15:25:44.317Z,8.90
2018-03-08T15:27:46.926Z,8.90
2018-03-08T15:29:50.307Z,8.90
2018-03-08T15:31:52.925Z,8.90
2018-03-08T15:33:55.557Z,8.90
2018-03-08T15:35:58.183Z,8.90
2018-03-08T15:38:00.796Z,8.90
2018-03-08T15:40:03.420Z,8.90
2018-03-08T15:42:06.062Z,8.80
2018-03-08T15:44:09.513Z,8.80
2018-03-08T15:46:12.106Z,8.70
2018-03-08T15:48:14.735Z,8.70
2018-03-08T15:50:17.357Z,8.70
2018-03-08T15:52:19.974Z,8.80
2018-03-08T15:54:23.345Z,8.60
2018-03-08T15:56:25.958Z,8.60
2018-03-08T15:58:28.562Z,8.60
2018-03-08T16:00:31.218Z,8.60
2018-03-08T16:02:33.782Z,8.60
2018-03-08T16:04:36.409Z,8.60
2018-03-08T16:06:50.780Z,8.60
2018-03-08T16:09:06.059Z,8.60
2018-03-08T16:11:09.853Z,8.60
2018-03-08T16:13:12.505Z,8.60
2018-03-08T16:15:15.146Z,8.60
2018-03-08T16:17:17.740Z,8.70
2018-03-08T16:19:20.370Z,8.70
2018-03-08T16:21:23.738Z,8.60
2018-03-08T16:23:26.394Z,8.60
2018-03-08T16:25:29.020Z,8.60
2018-03-08T16:27:31.800Z,8.60
2018-03-08T16:29:35.480Z,8.60
2018-03-08T16:31:38.918Z,8.60
2018-03-08T16:33:41.545Z,8.60
2018-03-08T16:35:44.949Z,8.50
2018-03-08T16:37:48.356Z,8.50
2018-03-08T16:39:50.974Z,8.50
2018-03-08T16:41:53.571Z,8.50
2018-03-08T16:43:56.199Z,8.50
2018-03-08T16:45:58.826Z,8.40
2018-03-08T16:48:01.431Z,8.40
2018-03-08T16:50:04.051Z,8.40
2018-03-08T16:52:06.665Z,8.30
2018-03-08T16:54:10.059Z,8.20
2018-03-08T16:56:13.462Z,8.20
2018-03-08T16:58:16.090Z,8.10
2018-03-08T17:00:18.774Z,8.10
2018-03-08T17:02:21.374Z,8.10
2018-03-08T17:04:24.754Z,8.00
2018-03-08T17:06:27.470Z,8.00
2018-03-08T17:08:30.105Z,8.00
2018-03-08T17:10:32.739Z,7.90
2018-03-08T17:12:35.406Z,7.90
2018-03-08T17:14:38.061Z,7.90
2018-03-08T17:16:40.711Z,7.90
2018-03-08T17:18:44.415Z,7.80
2018-03-08T17:20:47.924Z,7.80
2018-03-08T17:22:51.312Z,7.80
2018-03-08T17:24:54.726Z,7.80
2018-03-08T17:26:57.414Z,7.70
2018-03-08T17:29:00.067Z,7.80
2018-03-08T17:31:03.478Z,7.70
2018-03-08T17:33:06.112Z,7.70
2018-03-08T17:35:08.715Z,7.80
2018-03-08T17:37:12.103Z,7.80
2018-03-08T17:39:15.482Z,7.90
2018-03-08T17:41:18.188Z,7.80
2018-03-08T17:43:20.827Z,7.90
2018-03-08T17:45:23.475Z,7.80
2018-03-08T17:47:26.366Z,7.90
2018-03-08T17:49:28.998Z,7.80
2018-03-08T17:51:32.433Z,7.90
2018-03-08T17:53:35.077Z,7.90
2018-03-08T17:55:37.754Z,7.80
2018-03-08T17:57:40.504Z,7.80
2018-03-08T17:59:43.896Z,7.70
2018-03-08T18:01:47.275Z,7.60
2018-03-08T18:03:49.999Z,7.60
2018-03-08T18:05:52.654Z,7.60
2018-03-08T18:07:55.308Z,7.50
2018-03-08T18:09:58.711Z,7.40
2018-03-08T18:12:02.137Z,7.40
2018-03-08T18:14:04.750Z,7.30
2018-03-08T18:16:07.386Z,7.30
2018-03-08T18:18:10.025Z,7.30
2018-03-08T18:20:13.492Z,7.10
2018-03-08T18:22:16.118Z,7.10
2018-03-08T18:24:18.755Z,7.00
2018-03-08T18:26:21.420Z,7.00
2018-03-08T18:28:24.114Z,6.90
2018-03-08T18:30:26.715Z,6.80
2018-03-08T18:32:29.346Z,6.80
2018-03-08T18:34:31.984Z,6.80
2018-03-08T18:36:34.631Z,6.70
2018-03-08T18:38:38.035Z,6.60
2018-03-08T18:40:40.641Z,6.50
2018-03-08T18:42:43.327Z,6.50
2018-03-08T18:44:48.230Z,6.40
2018-03-08T18:46:50.886Z,6.40
2018-03-08T18:48:54.279Z,6.20
2018-03-08T18:50:57.667Z,6.20
2018-03-08T18:53:01.080Z,6.10
2018-03-08T18:55:04.547Z,6.00
2018-03-08T18:57:08.116Z,6.00
2018-03-08T18:59:10.955Z,5.90
2018-03-08T19:01:13.568Z,5.90
2018-03-08T19:03:16.211Z,5.80
2018-03-08T19:05:18.946Z,5.70
2018-03-08T19:07:22.394Z,5.60
2018-03-08T19:09:25.003Z,5.60
2018-03-08T19:11:27.600Z,5.60
2018-03-08T19:13:31.012Z,5.40
2018-03-08T19:15:33.626Z,5.40
2018-03-08T19:17:36.336Z,5.40
2018-03-08T19:19:39.088Z,5.30
2018-03-08T19:21:41.703Z,5.30
2018-03-08T19:23:45.121Z,5.20
2018-03-08T19:25:47.775Z,5.20
2018-03-08T19:27:51.158Z,5.10
2018-03-08T19:29:54.545Z,5.00
2018-03-08T19:31:57.910Z,5.00
2018-03-08T19:34:00.523Z,5.00
2018-03-08T19:36:03.924Z,4.90
2018-03-08T19:38:07.323Z,4.80
2018-03-08T19:40:09.987Z,4.80
2018-03-08T19:42:13.346Z,4.70
2018-03-08T19:44:15.951Z,4.70
2018-03-08T19:46:19.366Z,4.60
2018-03-08T19:48:21.985Z,4.60
2018-03-08T19:50:25.562Z,4.50
2018-03-08T19:52:28.230Z,4.50
2018-03-08T19:54:30.829Z,4.40
2018-03-08T19:56:33.485Z,4.50
2018-03-08T19:58:36.103Z,4.40
2018-03-08T20:00:38.712Z,4.30
2018-03-08T20:02:41.588Z,4.30
2018-03-08T20:04:44.225Z,4.30
2018-03-08T20:06:46.843Z,4.20
2018-03-08T20:08:49.477Z,4.20
2018-03-08T20:10:52.133Z,4.10
2018-03-08T20:12:54.771Z,4.00
2018-03-08T20:14:57.391Z,4.00
2018-03-08T20:17:00.011Z,4.00
2018-03-08T20:19:03.409Z,3.90
2018-03-08T20:21:06.096Z,3.90
2018-03-08T20:23:08.706Z,3.90
2018-03-08T20:25:11.334Z,3.90
2018-03-08T20:27:14.715Z,3.80
2018-03-08T20:29:18.142Z,3.70
2018-03-08T20:31:20.774Z,3.70
2018-03-08T20:33:23.367Z,3.70
2018-03-08T20:35:26.024Z,3.70
2018-03-08T20:37:28.641Z,3.60
2018-03-08T20:39:31.251Z,3.60
2018-03-08T20:41:33.884Z,3.50
2018-03-08T20:43:36.510Z,3.60
2018-03-08T20:45:39.155Z,3.50
2018-03-08T20:47:41.778Z,3.60
2018-03-08T20:49:45.146Z,3.50
2018-03-08T20:51:47.765Z,3.50
2018-03-08T20:53:50.383Z,3.50
2018-03-08T20:55:53.027Z,3.50
2018-03-08T20:57:55.675Z,3.40
2018-03-08T20:59:59.072Z,3.40
2018-03-08T21:02:02.462Z,3.40
2018-03-08T21:04:05.856Z,3.30
2018-03-08T21:06:09.258Z,3.30
2018-03-08T21:08:12.681Z,3.30
2018-03-08T21:10:15.300Z,3.20
2018-03-08T21:12:18.076Z,3.30
2018-03-08T21:14:21.134Z,3.40
2018-03-08T21:16:23.885Z,3.40
2018-03-08T21:18:26.509Z,3.50
2018-03-08T21:20:29.121Z,3.60
2018-03-08T21:22:31.746Z,3.60
2018-03-08T21:24:34.357Z,3.60
2018-03-08T21:26:37.780Z,3.60
2018-03-08T21:28:40.394Z,3.60
2018-03-08T21:30:43.106Z,3.80
2018-03-08T21:32:46.511Z,4.00
2018-03-08T21:34:49.883Z,4.10
2018-03-08T21:36:52.600Z,4.00
2018-03-08T21:38:55.235Z,4.10
2018-03-08T21:40:57.902Z,4.20
2018-03-08T21:43:00.551Z,4.20
2018-03-08T21:45:03.208Z,4.30
2018-03-08T21:47:05.812Z,4.30
2018-03-08T21:49:08.439Z,4.40
2018-03-08T21:51:11.104Z,4.40
2018-03-08T21:53:13.723Z,4.40
2018-03-08T21:55:16.446Z,4.40
2018-03-08T21:57:19.911Z,4.40
2018-03-08T21:59:22.507Z,4.30
2018-03-08T22:01:25.133Z,4.40
2018-03-08T22:03:27.787Z,4.40
2018-03-08T22:05:30.401Z,4.40
2018-03-08T22:07:33.055Z,4.50
2018-03-08T22:09:35.664Z,4.50
2018-03-08T22:11:38.314Z,4.50
2018-03-08T22:13:40.906Z,4.60
2018-03-08T22:15:43.562Z,4.50
2018-03-08T22:17:46.186Z,4.50
2018-03-08T22:19:48.813Z,4.50
2018-03-08T22:21:51.443Z,4.40
2018-03-08T22:23:54.829Z,4.50
2018-03-08T22:25:58.227Z,4.40
2018-03-08T22:28:01.639Z,4.40
2018-03-08T22:30:04.236Z,4.40
2018-03-08T22:32:06.838Z,4.40
2018-03-08T22:34:09.471Z,4.30
2018-03-08T22:36:12.099Z,4.30
2018-03-08T22:38:14.679Z,4.20
2018-03-08T22:40:17.312Z,4.20
2018-03-08T22:42:19.911Z,4.20
2018-03-08T22:44:22.529Z,4.10
2018-03-08T22:46:25.985Z,4.10
2018-03-08T22:48:28.684Z,4.10
2018-03-08T22:50:31.283Z,4.00
2018-03-08T22:52:33.882Z,3.90
2018-03-08T22:54:36.586Z,3.90
2018-03-08T22:56:40.012Z,3.70
2018-03-08T22:58:43.424Z,3.70
2018-03-08T23:00:46.136Z,3.70
2018-03-08T23:02:48.742Z,3.70
2018-03-08T23:04:51.372Z,3.70
2018-03-08T23:06:53.977Z,3.70
2018-03-08T23:08:56.598Z,3.60
2018-03-08T23:10:59.961Z,3.60
2018-03-08T23:13:02.613Z,3.50
2018-03-08T23:15:05.337Z,3.60
2018-03-08T23:17:08.721Z,3.50
2018-03-08T23:19:12.098Z,3.50
2018-03-08T23:21:15.519Z,3.40
2018-03-08T23:23:18.882Z,3.40
2018-03-08T23:25:21.506Z,3.40
2018-03-08T23:27:24.128Z,3.40
2018-03-08T23:29:26.738Z,3.40
2018-03-08T23:31:29.376Z,3.40
2018-03-08T23:33:32.002Z,3.30
2018-03-08T23:35:34.621Z,3.20
2018-03-08T23:37:37.247Z,3.20
2018-03-08T23:39:39.886Z,3.30
2018-03-08T23:41:42.564Z,3.30
2018-03-08T23:43:45.185Z,3.30
2018-03-08T23:45:47.863Z,3.30
2018-03-08T23:47:50.490Z,3.20
2018-03-08T23:49:53.870Z,2.90
2018-03-08T23:51:56.483Z,2.90
2018-03-08T23:53:59.895Z,2.90
2018-03-08T23:56:02.513Z,2.90
2018-03-08T23:58:05.910Z,2.90
